Time;durP1;ratioP1;P1;durP2;ratioP2;P2;SDS_P1;SDS_P2;PMS_P1;PMS_P2;Temp;Humidity;BMP_temperature;BMP_pressure;BME280_temperature;BME280_humidity;BME280_pressure;Samples;Min_cycle;Max_cycle;Signal;HPM_P1;HPM_P2
2023/09/04 00:01:38;;;;;;;6.95;6.25;;;;;;;16.35;84.63;102490.97;3602385;39;20047;-64
2023/09/04 00:04:06;;;;;;;7.30;6.60;;;;;;;16.10;84.82;102455.41;3600352;39;20175;-65
2023/09/04 00:06:32;;;;;;;7.50;6.80;;;;;;;16.28;85.25;102494.16;3602176;39;20063;-64
2023/09/04 00:08:59;;;;;;;9.55;6.22;;;;;;;16.25;85.62;102495.22;3602043;39;20063;-65
2023/09/04 00:11:27;;;;;;;7.00;6.25;;;;;;;16.12;86.06;102469.78;3603254;39;20104;-65
2023/09/04 00:13:53;;;;;;;7.00;5.72;;;;;;;16.16;86.35;102479.47;3605933;39;20055;-64
2023/09/04 00:16:19;;;;;;;6.60;6.00;;;;;;;16.11;86.89;102487.00;3604190;39;20047;-65
2023/09/04 00:18:46;;;;;;;7.05;6.35;;;;;;;16.08;86.28;102482.66;3601027;39;20119;-64
2023/09/04 00:21:13;;;;;;;7.28;6.57;;;;;;;16.04;86.78;102480.19;3604413;39;20148;-63
2023/09/04 00:23:38;;;;;;;7.50;6.75;;;;;;;16.01;86.74;102487.53;3603661;39;20039;-66
2023/09/04 00:26:05;;;;;;;6.82;6.20;;;;;;;15.96;86.72;102481.53;3601799;39;20055;-65
2023/09/04 00:28:30;;;;;;;7.13;6.43;;;;;;;15.94;87.00;102480.72;3602691;39;20066;-64
2023/09/04 00:30:57;;;;;;;7.20;6.50;;;;;;;15.91;87.01;102483.63;3607193;39;20058;-64
2023/09/04 00:33:23;;;;;;;7.15;6.47;;;;;;;15.87;86.94;102482.06;3603721;39;20382;-65
2023/09/04 00:35:48;;;;;;;7.40;6.68;;;;;;;15.82;87.16;102478.72;3602037;39;20139;-65
2023/09/04 00:38:14;;;;;;;7.60;6.80;;;;;;;15.78;87.60;102480.72;3600947;39;20104;-65
2023/09/04 00:40:40;;;;;;;6.80;6.10;;;;;;;15.73;87.38;102474.72;3602839;39;20051;-64
2023/09/04 00:43:06;;;;;;;8.07;6.63;;;;;;;15.74;87.14;102483.72;3604418;39;20086;-64
2023/09/04 00:45:35;;;;;;;7.15;6.55;;;;;;;15.49;87.87;102441.72;3601488;39;20071;-65
2023/09/04 00:48:03;;;;;;;7.45;6.78;;;;;;;15.66;87.37;102478.69;3604651;39;20116;-65
2023/09/04 00:50:30;;;;;;;9.18;6.40;;;;;;;15.60;87.77;102475.44;3603446;39;20063;-64
2023/09/04 00:53:02;;;;;;;7.20;6.50;;;;;;;15.51;87.63;102476.88;3604711;39;20447;-64
2023/09/04 00:55:28;;;;;;;7.97;6.55;;;;;;;15.28;87.45;102437.50;3602990;39;20124;-64
2023/09/04 00:57:55;;;;;;;7.10;6.40;;;;;;;15.55;87.48;102484.72;3596048;39;20344;-64
2023/09/04 01:00:22;;;;;;;8.10;6.70;;;;;;;15.52;87.85;102478.59;3602429;39;20617;-64
2023/09/04 01:02:48;;;;;;;8.35;7.07;;;;;;;15.51;87.81;102482.28;3605106;39;20059;-65
2023/09/04 01:05:14;;;;;;;7.20;6.40;;;;;;;15.49;87.35;102473.34;3602519;39;20051;-65
2023/09/04 01:07:44;;;;;;;8.10;7.18;;;;;;;15.42;88.14;102467.41;3604495;39;20082;-65
2023/09/04 01:10:12;;;;;;;7.82;7.03;;;;;;;15.44;88.45;102476.31;3604388;39;20319;-65
2023/09/04 01:13:03;;;;;;;7.97;6.57;;;;;;;15.37;88.48;102469.50;3603187;39;20372;-66
2023/09/04 01:15:31;;;;;;;9.48;6.75;;;;;;;15.35;88.93;102466.00;3601820;39;20057;-64
2023/09/04 01:17:59;;;;;;;7.40;6.72;;;;;;;15.25;88.80;102454.78;3602531;39;20523;-65
2023/09/04 01:20:27;;;;;;;8.10;7.15;;;;;;;15.31;88.63;102470.69;3604192;39;20065;-64
2023/09/04 01:22:57;;;;;;;8.10;7.15;;;;;;;15.28;88.94;102470.00;3605109;39;20057;-64
2023/09/04 01:25:52;;;;;;;9.73;6.57;;;;;;;15.21;88.92;102457.75;3606440;39;20060;-64
2023/09/04 01:28:24;;;;;;;8.90;6.60;;;;;;;15.19;88.56;102460.56;3604566;39;20050;-65
2023/09/04 01:31:14;;;;;;;7.85;7.10;;;;;;;15.13;88.68;102458.19;3603083;39;20070;-66
2023/09/04 01:33:49;;;;;;;8.13;6.60;;;;;;;15.12;89.61;102469.09;3600928;39;20439;-66
2023/09/04 01:36:18;;;;;;;8.85;7.28;;;;;;;15.01;89.28;102458.88;3605271;39;20051;-65
2023/09/04 01:38:46;;;;;;;7.90;7.10;;;;;;;15.04;88.75;102462.28;3603072;39;20052;-65
2023/09/04 01:41:12;;;;;;;8.05;7.22;;;;;;;14.82;88.21;102421.94;3603103;39;20077;-65
2023/09/04 01:43:38;;;;;;;9.43;7.05;;;;;;;15.03;88.53;102471.38;3602930;39;20120;-65
2023/09/04 01:46:04;;;;;;;9.00;6.90;;;;;;;15.00;88.43;102473.34;3602672;39;20055;-64
2023/09/04 01:48:30;;;;;;;7.68;6.70;;;;;;;14.94;87.58;102469.16;3605890;39;20282;-65
2023/09/04 01:50:56;;;;;;;8.50;7.25;;;;;;;14.96;87.93;102471.78;3602274;39;20086;-66
2023/09/04 01:53:22;;;;;;;7.95;7.18;;;;;;;14.92;88.20;102462.94;3603721;39;20688;-65
2023/09/04 01:55:48;;;;;;;7.88;7.07;;;;;;;14.92;87.80;102470.19;3602273;39;20711;-65
2023/09/04 01:58:14;;;;;;;10.13;7.43;;;;;;;14.88;88.32;102461.38;3606385;39;20062;-65
2023/09/04 02:00:39;;;;;;;8.10;7.30;;;;;;;14.87;88.30;102462.31;3594984;39;20047;-64
2023/09/04 02:03:05;;;;;;;8.38;7.45;;;;;;;14.83;87.96;102463.44;3604182;39;20052;-64
2023/09/04 02:05:30;;;;;;;9.02;7.80;;;;;;;14.78;87.81;102454.66;3602828;39;20220;-65
2023/09/04 02:07:56;;;;;;;8.50;7.47;;;;;;;14.77;88.17;102458.34;3602219;39;20059;-64
2023/09/04 02:10:26;;;;;;;8.70;7.80;;;;;;;14.78;89.00;102460.09;3593496;39;20337;-65
2023/09/04 02:12:53;;;;;;;8.45;7.63;;;;;;;14.74;88.84;102458.50;3607900;39;20055;-65
2023/09/04 02:15:18;;;;;;;9.20;8.30;;;;;;;14.72;88.74;102455.03;3603778;39;20103;-65
2023/09/04 02:17:44;;;;;;;9.35;8.20;;;;;;;14.73;89.41;102443.22;3600755;39;20059;-65
2023/09/04 02:20:10;;;;;;;9.07;7.93;;;;;;;14.70;89.28;102446.09;3601466;39;20702;-65
2023/09/04 02:22:36;;;;;;;9.70;8.35;;;;;;;14.65;88.75;102438.22;3602738;39;20459;-64
2023/09/04 02:25:02;;;;;;;9.68;8.77;;;;;;;14.60;89.17;102438.47;3605228;39;20058;-65
2023/09/04 02:27:27;;;;;;;9.30;8.43;;;;;;;14.61;89.43;102437.50;3602650;39;20061;-65
2023/09/04 02:29:53;;;;;;;8.45;7.75;;;;;;;14.48;89.63;102422.84;3604619;39;20063;-65
2023/09/04 02:32:18;;;;;;;9.55;8.55;;;;;;;14.54;89.52;102436.09;3603675;39;20055;-64
2023/09/04 02:34:44;;;;;;;9.35;8.38;;;;;;;14.51;89.77;102435.38;3602852;39;20059;-66
2023/09/04 02:37:10;;;;;;;9.45;8.45;;;;;;;14.47;89.91;102426.50;3603187;39;20059;-64
2023/09/04 02:39:36;;;;;;;9.70;8.65;;;;;;;14.44;89.86;102429.38;3603138;39;20054;-64
2023/09/04 02:42:01;;;;;;;9.15;8.35;;;;;;;14.39;89.72;102426.91;3594033;39;20104;-65
2023/09/04 02:44:29;;;;;;;9.80;8.88;;;;;;;14.39;90.05;102421.47;3602815;39;20059;-64
2023/09/04 02:46:54;;;;;;;9.20;8.27;;;;;;;14.38;90.14;102422.44;3593861;39;20036;-65
2023/09/04 02:49:20;;;;;;;8.85;8.05;;;;;;;14.36;89.50;102427.06;3601887;39;20067;-65
2023/09/04 02:51:46;;;;;;;9.85;8.95;;;;;;;14.37;90.71;102430.66;3602417;39;20063;-65
2023/09/04 02:54:11;;;;;;;11.27;9.15;;;;;;;14.36;90.63;102418.06;3602520;39;20063;-66
2023/09/04 02:56:37;;;;;;;9.55;8.63;;;;;;;14.36;90.45;102420.78;3604879;39;20073;-65
2023/09/04 02:59:02;;;;;;;10.50;9.30;;;;;;;14.35;90.63;102414.50;3604610;39;20397;-64
2023/09/04 03:01:28;;;;;;;9.07;8.27;;;;;;;14.36;89.74;102426.19;3601327;39;20081;-66
2023/09/04 03:03:53;;;;;;;10.43;9.43;;;;;;;14.34;89.61;102411.88;3599024;39;20070;-66
2023/09/04 03:06:19;;;;;;;10.40;9.35;;;;;;;14.22;89.50;102390.88;3601393;39;20370;-65
2023/09/04 03:08:45;;;;;;;9.48;8.57;;;;;;;14.34;89.40;102411.88;3602429;39;20063;-65
2023/09/04 03:11:11;;;;;;;9.50;8.55;;;;;;;14.34;89.14;102411.88;3600953;39;20085;-66
2023/09/04 03:13:37;;;;;;;9.30;8.45;;;;;;;14.31;89.45;102401.22;3602605;39;20051;-65
2023/09/04 03:16:07;;;;;;;10.15;9.15;;;;;;;14.17;89.25;102378.44;3603868;39;20385;-64
2023/09/04 03:18:34;;;;;;;10.48;9.48;;;;;;;14.32;89.72;102394.84;3603838;39;20043;-66
2023/09/04 03:21:02;;;;;;;10.50;9.07;;;;;;;14.28;89.50;102390.56;3606288;39;20047;-65
2023/09/04 03:23:27;;;;;;;10.18;9.18;;;;;;;13.83;89.90;102305.47;3602081;39;21948;-64
2023/09/04 03:25:55;;;;;;;11.38;9.57;;;;;;;14.32;90.73;102387.59;3603252;39;20053;-65
2023/09/04 03:28:21;;;;;;;12.75;10.75;;;;;;;14.33;90.68;102383.94;3596419;39;20066;-64
2023/09/04 03:30:46;;;;;;;11.82;10.73;;;;;;;14.31;90.30;102385.88;3604121;39;20047;-66
2023/09/04 03:33:12;;;;;;;12.48;11.18;;;;;;;14.33;90.97;102393.88;3603317;39;20059;-64
2023/09/04 03:35:37;;;;;;;11.57;10.38;;;;;;;14.34;90.60;102399.22;3604591;39;20066;-65
2023/09/04 03:38:03;;;;;;;13.35;11.23;;;;;;;14.35;90.31;102402.81;3603634;39;20205;-65
2023/09/04 03:40:30;;;;;;;12.35;11.05;;;;;;;14.37;91.16;102398.19;3602266;39;20094;-65
2023/09/04 03:42:56;;;;;;;16.00;13.57;;;;;;;14.33;90.88;102383.06;3602110;39;20044;-65
2023/09/04 03:45:22;;;;;;;15.20;13.15;;;;;;;14.43;91.60;102387.06;3592033;39;20414;-65
2023/09/04 03:47:49;;;;;;;12.63;11.43;;;;;;;14.47;91.23;102394.03;3604749;39;20090;-64
2023/09/04 03:50:15;;;;;;;13.30;12.00;;;;;;;14.50;91.26;102390.31;3602362;39;20307;-64
2023/09/04 03:52:43;;;;;;;14.43;11.85;;;;;;;14.48;91.41;102382.25;3602290;39;20099;-65
2023/09/04 03:55:11;;;;;;;13.10;11.70;;;;;;;14.47;90.89;102382.34;3602360;39;20062;-65
2023/09/04 03:57:37;;;;;;;14.75;12.40;;;;;;;14.45;90.91;102363.47;3601924;39;20059;-64
2023/09/04 04:00:16;;;;;;;13.13;11.82;;;;;;;14.53;90.72;102379.34;3601490;39;20043;-64
2023/09/04 04:02:44;;;;;;;14.73;12.63;;;;;;;14.51;91.18;102376.72;3604394;39;20070;-65
2023/09/04 04:05:13;;;;;;;16.50;13.52;;;;;;;14.54;91.22;102376.53;3598842;39;20051;-65
2023/09/04 04:07:40;;;;;;;13.13;11.70;;;;;;;14.54;91.35;102381.97;3601029;39;20047;-65
2023/09/04 04:10:06;;;;;;;13.07;11.75;;;;;;;14.44;90.98;102363.56;3602154;39;20040;-64
2023/09/04 04:12:33;;;;;;;12.32;10.98;;;;;;;14.55;91.32;102381.00;3602865;39;20051;-65
2023/09/04 04:15:03;;;;;;;11.82;10.73;;;;;;;14.54;91.14;102381.97;3605624;39;20056;-64
2023/09/04 04:17:29;;;;;;;14.35;12.13;;;;;;;14.54;91.34;102373.84;3605696;39;20325;-65
2023/09/04 04:19:55;;;;;;;14.15;11.30;;;;;;;14.55;90.95;102383.69;3599780;39;20043;-65
2023/09/04 04:22:21;;;;;;;22.58;19.25;;;;;;;14.56;91.33;102388.16;3604285;39;20055;-65
2023/09/04 04:24:47;;;;;;;22.73;18.50;;;;;;;14.46;91.15;102372.47;3602540;39;20123;-64
2023/09/04 04:27:15;;;;;;;21.35;18.55;;;;;;;14.56;90.92;102379.19;3605352;39;20120;-66
2023/09/04 04:29:45;;;;;;;18.95;15.98;;;;;;;14.56;90.86;102390.00;3602994;39;20050;-65
2023/09/04 04:32:10;;;;;;;13.60;12.20;;;;;;;14.54;90.34;102379.25;3605546;39;20266;-65
2023/09/04 04:34:36;;;;;;;12.25;11.02;;;;;;;14.53;90.31;102380.22;3604072;39;20344;-65
2023/09/04 04:37:04;;;;;;;13.00;11.60;;;;;;;14.51;89.97;102387.53;3604926;39;20051;-65
2023/09/04 04:39:29;;;;;;;12.52;11.23;;;;;;;14.50;90.54;102383.06;3597820;39;20047;-64
2023/09/04 04:41:55;;;;;;;11.90;10.70;;;;;;;14.50;90.25;102380.34;3604974;39;20050;-65
2023/09/04 04:44:21;;;;;;;12.82;11.55;;;;;;;14.49;90.17;102375.88;3605069;39;20071;-64
2023/09/04 04:46:47;;;;;;;13.30;11.90;;;;;;;14.44;90.54;102358.16;3604058;39;20286;-65
2023/09/04 04:49:19;;;;;;;12.80;11.50;;;;;;;14.49;90.46;102373.16;3607187;39;20047;-65
2023/09/04 04:51:45;;;;;;;17.20;15.00;;;;;;;14.48;90.48;102371.44;3603972;39;21649;-64
2023/09/04 04:54:10;;;;;;;16.15;14.50;;;;;;;14.48;90.37;102373.25;3605830;39;20059;-65
2023/09/04 04:56:36;;;;;;;15.05;13.50;;;;;;;14.45;91.04;102371.59;3604958;39;20380;-65
2023/09/04 04:59:02;;;;;;;13.25;11.93;;;;;;;14.44;91.04;102372.56;3604520;39;20058;-65
2023/09/04 05:01:28;;;;;;;12.85;11.55;;;;;;;14.47;90.61;102366.13;3604872;39;20052;-64
2023/09/04 05:03:53;;;;;;;13.57;12.18;;;;;;;14.44;90.91;102359.03;3602592;39;20062;-64
2023/09/04 05:06:19;;;;;;;13.25;11.85;;;;;;;14.47;91.14;102369.69;3602949;39;20076;-64
2023/09/04 05:08:45;;;;;;;15.93;11.80;;;;;;;14.49;90.24;102369.59;3603645;39;20402;-64
2023/09/04 05:11:10;;;;;;;12.90;11.52;;;;;;;14.51;91.03;102379.41;3602969;39;20052;-64
2023/09/04 05:13:36;;;;;;;13.10;11.80;;;;;;;14.53;90.57;102382.06;3602449;39;20077;-64
2023/09/04 05:16:05;;;;;;;12.90;11.52;;;;;;;14.58;91.04;102388.06;3603611;39;20058;-64
2023/09/04 05:18:32;;;;;;;13.57;11.93;;;;;;;14.58;90.01;102388.94;3604352;39;20166;-64
2023/09/04 05:20:58;;;;;;;14.10;12.60;;;;;;;14.60;90.28;102384.34;3604806;39;20069;-65
2023/09/04 05:23:23;;;;;;;16.83;13.30;;;;;;;14.58;90.11;102383.53;3605062;39;20051;-64
2023/09/04 05:25:52;;;;;;;16.30;12.45;;;;;;;14.54;90.23;102384.66;3603380;39;20419;-66
2023/09/04 05:28:18;;;;;;;14.90;12.93;;;;;;;14.54;90.73;102384.66;3604741;39;20062;-66
2023/09/04 05:30:44;;;;;;;14.07;12.48;;;;;;;14.42;90.90;102366.34;3609150;39;20066;-64
2023/09/04 05:33:10;;;;;;;15.07;13.05;;;;;;;14.53;90.24;102379.34;3601634;39;20062;-65
2023/09/04 05:35:35;;;;;;;14.35;12.40;;;;;;;14.54;90.30;102378.38;3602218;39;20055;-64
2023/09/04 05:38:02;;;;;;;14.55;12.30;;;;;;;14.56;89.78;102385.47;3604741;39;20055;-65
2023/09/04 05:40:28;;;;;;;16.23;12.82;;;;;;;14.59;90.17;102388.00;3603000;39;20101;-65
2023/09/04 05:42:53;;;;;;;14.65;12.88;;;;;;;14.65;90.39;102380.50;3605543;39;20043;-65
2023/09/04 05:45:19;;;;;;;18.30;13.88;;;;;;;14.68;90.00;102385.75;3607293;39;20058;-65
2023/09/04 05:47:46;;;;;;;15.90;14.20;;;;;;;14.65;89.93;102377.78;3604948;39;20093;-66
2023/09/04 05:50:13;;;;;;;15.60;13.25;;;;;;;14.62;90.11;102371.59;3606345;39;20135;-65
2023/09/04 05:52:40;;;;;;;16.38;14.02;;;;;;;14.73;89.89;102389.97;3602823;39;20351;-66
2023/09/04 05:55:06;;;;;;;16.35;13.75;;;;;;;14.56;90.21;102353.00;3607346;39;20281;-65
2023/09/04 05:57:33;;;;;;;17.20;13.77;;;;;;;14.80;90.99;102382.38;3609057;39;20110;-66
2023/09/04 05:59:59;;;;;;;13.73;12.32;;;;;;;14.86;91.15;102382.03;3604648;39;20060;-66
2023/09/04 06:02:27;;;;;;;14.63;12.77;;;;;;;14.90;90.74;102389.03;3606596;39;20070;-65
2023/09/04 06:04:53;;;;;;;17.02;12.70;;;;;;;14.96;91.11;102387.81;3604176;39;20175;-66
2023/09/04 06:07:18;;;;;;;14.98;12.27;;;;;;;15.02;91.15;102387.47;3603341;39;20175;-66
2023/09/04 06:09:44;;;;;;;15.25;13.10;;;;;;;15.10;90.72;102385.22;3601275;39;20401;-66
2023/09/04 06:12:11;;;;;;;15.82;13.00;;;;;;;15.15;90.98;102387.66;3604296;39;20332;-66
2023/09/04 06:14:38;;;;;;;14.15;12.68;;;;;;;15.20;91.23;102393.72;3603941;39;20067;-67
2023/09/04 06:17:04;;;;;;;13.63;12.23;;;;;;;15.28;91.58;102383.31;3605667;39;21051;-66
2023/09/04 06:19:30;;;;;;;14.20;12.70;;;;;;;15.35;91.43;102390.16;3604173;39;20206;-67
2023/09/04 06:21:57;;;;;;;13.82;12.52;;;;;;;15.25;90.16;102350.97;3604165;39;20382;-66
2023/09/04 06:24:23;;;;;;;13.95;12.60;;;;;;;14.97;90.38;102292.97;3602462;39;20099;-65
2023/09/04 06:26:50;;;;;;;14.30;12.80;;;;;;;15.51;90.65;102379.31;3604579;39;20321;-66
2023/09/04 06:29:21;;;;;;;14.90;13.25;;;;;;;15.60;89.91;102377.88;3597634;39;20057;-67
2023/09/04 06:31:47;;;;;;;14.43;12.80;;;;;;;15.74;89.85;102386.13;3602943;39;20773;-66
2023/09/04 06:34:12;;;;;;;14.63;12.70;;;;;;;15.79;90.41;102375.84;3604083;39;20055;-67
2023/09/04 06:36:38;;;;;;;15.27;12.68;;;;;;;15.90;90.05;102377.94;3602349;39;20098;-66
2023/09/04 06:39:04;;;;;;;13.98;12.48;;;;;;;15.95;88.95;102383.94;3604506;39;20124;-66
2023/09/04 06:41:32;;;;;;;14.35;12.77;;;;;;;15.92;89.22;102368.75;3602242;39;20856;-68
2023/09/04 06:43:58;;;;;;;14.25;12.55;;;;;;;16.09;89.37;102380.44;3605419;39;20055;-66
2023/09/04 06:46:24;;;;;;;14.57;13.07;;;;;;;16.14;89.93;102375.59;3596493;39;20043;-67
2023/09/04 06:48:50;;;;;;;13.95;12.55;;;;;;;15.85;88.50;102307.69;3609957;39;20055;-66
2023/09/04 06:51:16;;;;;;;14.98;12.32;;;;;;;16.28;87.92;102370.22;3602948;39;20441;-67
2023/09/04 06:53:43;;;;;;;13.80;12.48;;;;;;;16.45;88.32;102383.59;3607924;39;20080;-67
2023/09/04 06:56:09;;;;;;;13.93;12.52;;;;;;;16.56;87.34;102380.22;3603755;39;20063;-67
2023/09/04 06:58:35;;;;;;;14.07;12.63;;;;;;;16.68;86.23;102375.84;3603264;39;20386;-68
2023/09/04 07:01:05;;;;;;;13.13;11.38;;;;;;;16.83;86.18;102371.34;3602621;39;20066;-67
2023/09/04 07:03:31;;;;;;;13.90;11.73;;;;;;;16.80;85.42;102350.69;3604107;39;20062;-66
2023/09/04 07:05:57;;;;;;;12.77;11.35;;;;;;;17.09;85.62;102383.25;3603290;39;20050;-66
2023/09/04 07:08:23;;;;;;;15.25;12.30;;;;;;;17.20;83.38;102375.28;3602929;39;20420;-66
2023/09/04 07:10:51;;;;;;;13.48;11.90;;;;;;;17.23;84.00;102361.50;3602629;39;20063;-66
2023/09/04 07:13:18;;;;;;;14.52;11.50;;;;;;;17.37;84.24;102356.00;3603017;39;20066;-67
2023/09/04 07:15:44;;;;;;;12.45;11.23;;;;;;;17.61;83.22;102367.13;3605769;39;20372;-66
2023/09/04 07:18:10;;;;;;;12.35;11.02;;;;;;;17.70;82.46;102368.34;3607441;39;20063;-66
2023/09/04 07:20:36;;;;;;;11.93;10.82;;;;;;;17.86;81.86;102371.81;3603121;39;20049;-66
2023/09/04 07:23:03;;;;;;;14.38;12.85;;;;;;;18.02;81.42;102362.59;3604968;39;20055;-65
2023/09/04 07:25:29;;;;;;;20.00;17.50;;;;;;;18.18;81.08;102368.72;3602671;39;20047;-66
2023/09/04 07:27:56;;;;;;;15.32;12.75;;;;;;;18.38;80.43;102374.63;3602039;39;20378;-65
2023/09/04 07:30:22;;;;;;;12.88;11.05;;;;;;;18.54;80.42;102369.81;3605837;39;20040;-66
2023/09/04 07:32:48;;;;;;;11.30;10.05;;;;;;;18.72;79.75;102376.72;3602035;39;20741;-65
2023/09/04 07:35:13;;;;;;;11.18;9.95;;;;;;;18.93;79.67;102377.00;3601424;39;20066;-65
2023/09/04 07:37:39;;;;;;;11.20;10.10;;;;;;;19.05;76.78;102374.41;3604449;39;20055;-66
2023/09/04 07:40:06;;;;;;;11.63;9.65;;;;;;;19.19;75.13;102383.31;3601988;39;20059;-66
2023/09/04 07:42:32;;;;;;;10.40;9.35;;;;;;;19.25;75.48;102361.03;3603438;39;20051;-65
2023/09/04 07:44:57;;;;;;;10.20;9.30;;;;;;;19.55;74.37;102384.28;3601633;39;20128;-66
2023/09/04 07:47:23;;;;;;;10.20;9.20;;;;;;;19.62;74.71;102385.56;3603284;39;20074;-65
2023/09/04 07:49:51;;;;;;;12.15;8.73;;;;;;;19.41;72.24;102308.06;3608263;39;20377;-67
2023/09/04 07:52:16;;;;;;;9.52;8.10;;;;;;;20.03;71.88;102370.63;3597112;39;20112;-66
2023/09/04 07:54:42;;;;;;;8.63;7.82;;;;;;;19.66;70.25;102288.91;3605487;39;20094;-66
2023/09/04 07:57:08;;;;;;;10.95;7.30;;;;;;;20.27;69.66;102365.13;3603832;39;20054;-67
2023/09/04 07:59:36;;;;;;;8.27;7.07;;;;;;;20.41;69.17;102367.63;3603666;39;20088;-67
2023/09/04 08:02:03;;;;;;;8.90;8.00;;;;;;;20.54;69.91;102362.09;3602317;39;20051;-66
2023/09/04 08:04:29;;;;;;;7.82;7.03;;;;;;;20.70;69.51;102369.06;3602801;39;20143;-66
2023/09/04 08:06:56;;;;;;;9.52;6.68;;;;;;;20.87;69.18;102374.06;3599947;39;20904;-67
2023/09/04 08:09:22;;;;;;;9.20;6.38;;;;;;;20.98;67.50;102370.44;3602919;39;20113;-65
2023/09/04 08:11:48;;;;;;;7.13;6.43;;;;;;;21.12;67.17;102372.03;3601629;39;20043;-66
2023/09/04 08:14:13;;;;;;;8.98;6.60;;;;;;;21.20;66.40;102366.81;3604030;39;20334;-67
2023/09/04 08:16:39;;;;;;;6.97;6.30;;;;;;;21.38;68.49;102357.13;3602794;39;20051;-67
2023/09/04 08:19:05;;;;;;;9.63;6.60;;;;;;;21.53;65.98;102361.31;3603075;39;20062;-67
2023/09/04 08:21:31;;;;;;;6.47;5.88;;;;;;;21.65;66.07;102361.28;3601775;39;20063;-67
2023/09/04 08:23:57;;;;;;;10.98;6.55;;;;;;;21.78;65.21;102360.09;3599423;39;20442;-67
2023/09/04 08:26:23;;;;;;;6.13;5.53;;;;;;;21.97;65.77;102367.59;3604190;39;20051;-66
2023/09/04 08:28:48;;;;;;;6.30;5.70;;;;;;;22.09;63.68;102373.03;3604323;39;20058;-66
2023/09/04 08:31:14;;;;;;;5.90;5.30;;;;;;;22.14;62.41;102368.91;3601007;39;20071;-67
2023/09/04 08:33:40;;;;;;;6.25;5.65;;;;;;;22.20;62.10;102367.50;3604786;39;20763;-67
2023/09/04 08:36:06;;;;;;;5.70;5.07;;;;;;;22.36;63.24;102361.56;3601941;39;20590;-67
2023/09/04 08:38:31;;;;;;;5.80;5.30;;;;;;;22.57;63.69;102361.56;3591193;39;20382;-66
2023/09/04 08:41:07;;;;;;;5.53;5.03;;;;;;;22.82;61.80;102362.97;3601385;39;20058;-66
2023/09/04 08:43:36;;;;;;;7.07;4.88;;;;;;;22.96;59.53;102362.63;3601754;39;20326;-67
2023/09/04 08:46:07;;;;;;;6.95;4.63;;;;;;;23.14;59.28;102371.06;3601687;39;20055;-65
2023/09/04 08:48:41;;;;;;;7.75;4.70;;;;;;;23.39;59.36;102369.69;3601257;39;20047;-66
2023/09/04 08:51:08;;;;;;;5.32;4.10;;;;;;;23.60;57.60;102372.34;3602479;39;20057;-66
2023/09/04 08:53:36;;;;;;;6.07;4.35;;;;;;;23.71;57.45;102369.50;3601752;39;20065;-66
2023/09/04 08:56:05;;;;;;;7.43;3.85;;;;;;;23.87;57.00;102360.69;3592515;39;20059;-67
2023/09/04 08:58:32;;;;;;;6.70;4.30;;;;;;;23.94;55.43;102344.47;3600994;39;20462;-66
2023/09/04 09:00:58;;;;;;;5.38;3.92;;;;;;;24.12;55.10;102356.47;3603216;39;20113;-67
2023/09/04 09:03:24;;;;;;;6.95;3.67;;;;;;;24.27;55.17;102354.16;3604681;39;20051;-66
2023/09/04 09:05:55;;;;;;;5.20;3.90;;;;;;;24.40;55.20;102349.19;3604823;39;20502;-66
2023/09/04 09:08:23;;;;;;;3.53;3.22;;;;;;;24.50;53.41;102340.97;3596286;39;20504;-65
2023/09/04 09:10:50;;;;;;;8.10;3.70;;;;;;;24.64;54.19;102345.97;3603909;39;20132;-66
2023/09/04 09:13:15;;;;;;;4.85;3.50;;;;;;;24.86;53.74;102350.22;3602565;39;20514;-66
2023/09/04 09:15:42;;;;;;;3.85;3.55;;;;;;;25.03;52.89;102345.81;3605303;39;20055;-67
2023/09/04 09:18:08;;;;;;;3.88;3.15;;;;;;;25.13;50.40;102346.66;3602284;39;20051;-66
2023/09/04 09:20:39;;;;;;;4.35;2.97;;;;;;;25.23;51.44;102357.59;3597476;39;20043;-66
2023/09/04 09:23:06;;;;;;;4.88;3.30;;;;;;;25.37;49.63;102347.94;3603080;39;20424;-66
2023/09/04 09:25:37;;;;;;;4.53;3.03;;;;;;;25.32;48.56;102356.69;3604271;39;20059;-67
2023/09/04 09:28:07;;;;;;;5.53;3.42;;;;;;;25.36;50.35;102346.22;3603390;39;20045;-67
2023/09/04 09:30:37;;;;;;;3.28;2.97;;;;;;;25.16;48.45;102299.56;3602602;39;20059;-67
2023/09/04 09:33:12;;;;;;;3.53;3.00;;;;;;;25.68;49.16;102359.47;3605878;39;20086;-66
2023/09/04 09:35:41;;;;;;;4.18;2.83;;;;;;;25.91;49.96;102359.88;3608120;39;20139;-65
2023/09/04 09:38:08;;;;;;;4.47;3.00;;;;;;;26.05;49.84;102353.81;3604554;39;20160;-66
2023/09/04 09:40:35;;;;;;;4.45;2.75;;;;;;;26.26;50.60;102359.00;3607661;39;20062;-67
2023/09/04 09:43:01;;;;;;;2.63;2.42;;;;;;;26.29;48.47;102342.13;3604097;39;20061;-65
2023/09/04 09:45:35;;;;;;;2.60;2.38;;;;;;;26.51;47.91;102359.19;3606768;39;20094;-66
2023/09/04 09:48:11;;;;;;;2.90;2.58;;;;;;;26.54;46.37;102350.59;3603388;39;20063;-66
2023/09/04 09:50:40;;;;;;;3.17;2.53;;;;;;;26.69;47.64;102346.19;3603594;39;20075;-66
2023/09/04 09:53:05;;;;;;;5.85;2.80;;;;;;;26.85;48.46;102353.69;3601467;39;20143;-66
2023/09/04 09:55:34;;;;;;;6.00;2.88;;;;;;;26.58;45.76;102277.53;3605126;39;20054;-66
2023/09/04 09:58:01;;;;;;;3.30;2.65;;;;;;;27.09;47.33;102330.88;3603055;39;20050;-67
2023/09/04 10:00:28;;;;;;;5.38;2.67;;;;;;;27.24;46.26;102339.38;3602542;39;20515;-66
2023/09/04 10:02:54;;;;;;;3.35;2.50;;;;;;;27.24;45.44;102328.34;3601976;39;20302;-66
2023/09/04 10:05:24;;;;;;;4.15;3.58;;;;;;;27.33;44.86;102305.25;3604246;39;20051;-68
2023/09/04 10:08:00;;;;;;;2.97;2.50;;;;;;;27.61;45.06;102324.28;3602636;39;20533;-66
2023/09/04 10:10:26;;;;;;;4.18;2.38;;;;;;;27.68;44.42;102317.03;3596780;39;20386;-66
2023/09/04 10:13:06;;;;;;;2.97;2.60;;;;;;;27.75;43.86;102320.84;3605389;39;20055;-66
2023/09/04 10:15:36;;;;;;;3.30;2.38;;;;;;;27.85;43.60;102326.25;3593171;39;20059;-65
2023/09/04 10:18:14;;;;;;;4.00;2.40;;;;;;;27.89;42.94;102325.72;3604611;39;20051;-66
2023/09/04 10:20:41;;;;;;;2.53;2.30;;;;;;;28.03;40.81;102326.06;3596203;39;20601;-66
2023/09/04 10:23:10;;;;;;;5.10;3.08;;;;;;;28.02;43.28;102329.88;3604453;39;20318;-65
2023/09/04 10:26:12;;;;;;;5.03;2.30;;;;;;;28.06;43.34;102326.56;3603060;39;20398;-65
2023/09/04 10:28:50;;;;;;;2.83;2.00;;;;;;;28.20;40.91;102319.50;3605673;39;20046;-66
2023/09/04 10:31:19;;;;;;;6.47;2.85;;;;;;;28.33;40.58;102314.28;3605813;39;20394;-66
2023/09/04 10:33:45;;;;;;;4.13;2.50;;;;;;;27.90;39.71;102239.00;3604466;39;20057;-65
2023/09/04 10:36:12;;;;;;;2.85;2.65;;;;;;;28.37;39.77;102309.25;3603073;39;20075;-66
2023/09/04 10:38:38;;;;;;;2.97;2.25;;;;;;;28.30;40.03;102300.81;3598740;39;20090;-68
2023/09/04 10:41:08;;;;;;;3.38;2.15;;;;;;;28.36;39.54;102300.09;3604347;39;20055;-66
2023/09/04 10:43:41;;;;;;;2.90;2.22;;;;;;;28.34;40.85;102284.72;3605386;39;20056;-67
2023/09/04 10:46:09;;;;;;;2.78;2.22;;;;;;;28.58;40.39;102292.13;3602301;39;20116;-67
2023/09/04 10:48:48;;;;;;;2.40;2.20;;;;;;;28.86;40.85;102295.28;3601014;39;20051;-66
2023/09/04 10:51:29;;;;;;;1.88;1.77;;;;;;;28.97;39.36;102294.88;3604367;39;20071;-66
2023/09/04 10:53:57;;;;;;;4.60;2.13;;;;;;;29.02;36.83;102286.06;3603818;39;20566;-64
2023/09/04 10:56:24;;;;;;;3.10;2.13;;;;;;;28.97;35.71;102288.50;3604169;39;20051;-65
2023/09/04 10:59:04;;;;;;;5.82;2.20;;;;;;;29.10;36.95;102283.25;3605002;39;20123;-65
2023/09/04 11:01:36;;;;;;;2.38;2.13;;;;;;;29.17;34.71;102280.63;3603035;39;20067;-66
2023/09/04 11:04:08;;;;;;;2.22;2.03;;;;;;;29.21;37.15;102274.56;3603032;39;20055;-67
2023/09/04 11:07:32;;;;;;;3.97;3.53;;;;;;;29.39;37.51;102283.41;3606716;39;20047;-68
2023/09/04 11:10:34;;;;;;;2.53;1.80;;;;;;;29.59;36.97;102266.28;3601867;39;20496;-65
2023/09/04 11:13:00;;;;;;;4.65;1.90;;;;;;;29.82;35.33;102274.63;3600825;39;20109;-64
2023/09/04 11:15:28;;;;;;;3.28;2.00;;;;;;;29.90;35.36;102269.00;3603313;39;20119;-66
2023/09/04 11:17:54;;;;;;;2.22;2.03;;;;;;;29.91;35.82;102275.41;3602306;39;20120;-65
2023/09/04 11:20:26;;;;;;;2.80;2.03;;;;;;;29.80;35.01;102269.25;3604771;39;20298;-66
2023/09/04 11:22:55;;;;;;;4.43;2.05;;;;;;;29.67;35.86;102274.56;3600391;39;20059;-64